createdAt,value
2022-09-12T00:00:10.580Z,496.18
2022-09-12T00:00:21.599Z,496.17
2022-09-12T00:00:32.608Z,496.19
2022-09-12T00:00:43.624Z,496.16
2022-09-12T00:00:54.597Z,496.15
2022-09-12T00:01:05.593Z,496.12
2022-09-12T00:01:16.689Z,496.13
2022-09-12T00:01:27.722Z,496.12
2022-09-12T00:01:39.695Z,496.10
2022-09-12T00:01:51.625Z,496.10
2022-09-12T00:02:02.638Z,496.10
2022-09-12T00:02:13.645Z,496.10
2022-09-12T00:02:25.589Z,496.05
2022-09-12T00:02:36.605Z,496.06
2022-09-12T00:02:47.604Z,496.02
2022-09-12T00:02:58.632Z,496.03
2022-09-12T00:03:09.638Z,496.00
2022-09-12T00:03:21.561Z,496.01
2022-09-12T00:03:32.585Z,496.01
2022-09-12T00:03:43.600Z,496.01
2022-09-12T00:03:54.607Z,496.03
2022-09-12T00:04:05.619Z,496.03
2022-09-12T00:04:16.635Z,496.06
2022-09-12T00:04:28.632Z,496.04
2022-09-12T00:04:39.551Z,496.07
2022-09-12T00:04:50.552Z,496.11
2022-09-12T00:05:01.559Z,496.12
2022-09-12T00:05:12.560Z,496.15
2022-09-12T00:05:23.604Z,496.17
2022-09-12T00:05:34.613Z,496.18
2022-09-12T00:05:45.624Z,496.18
2022-09-12T00:05:56.632Z,496.21
2022-09-12T00:06:07.646Z,496.23
2022-09-12T00:06:22.833Z,496.24
2022-09-12T00:06:30.576Z,496.26
2022-09-12T00:06:41.602Z,496.30
2022-09-12T00:06:52.658Z,496.31
2022-09-12T00:07:04.576Z,496.34
2022-09-12T00:07:15.596Z,496.35
2022-09-12T00:07:26.609Z,496.36
2022-09-12T00:07:37.635Z,496.38
2022-09-12T00:07:48.636Z,496.38
2022-09-12T00:08:00.556Z,496.42
2022-09-12T00:08:11.576Z,496.43
2022-09-12T00:08:22.588Z,496.42
2022-09-12T00:08:33.595Z,496.42
2022-09-12T00:08:44.701Z,496.43
2022-09-12T00:08:56.588Z,496.45
2022-09-12T00:09:07.608Z,496.46
2022-09-12T00:09:18.622Z,496.44
2022-09-12T00:09:29.644Z,496.44
2022-09-12T00:09:40.554Z,496.45
2022-09-12T00:09:51.652Z,496.45
2022-09-12T00:10:03.568Z,496.42
2022-09-12T00:10:14.572Z,496.43
2022-09-12T00:10:25.581Z,496.44
2022-09-12T00:10:36.597Z,496.46
2022-09-12T00:10:47.603Z,496.47
2022-09-12T00:10:58.625Z,496.48
2022-09-12T00:11:09.637Z,496.46
2022-09-12T00:11:21.560Z,496.49
2022-09-12T00:11:32.588Z,496.47
2022-09-12T00:11:43.601Z,496.50
2022-09-12T00:11:54.605Z,496.50
2022-09-12T00:12:05.619Z,496.50
2022-09-12T00:12:16.632Z,496.53
2022-09-12T00:12:27.647Z,496.54
2022-09-12T00:12:39.567Z,496.55
2022-09-12T00:12:50.571Z,496.57
2022-09-12T00:13:01.594Z,496.60
2022-09-12T00:13:12.613Z,496.59
2022-09-12T00:13:23.623Z,496.62
2022-09-12T00:13:38.344Z,496.65
2022-09-12T00:13:47.612Z,496.64
2022-09-12T00:13:58.617Z,496.67
2022-09-12T00:14:09.624Z,496.67
2022-09-12T00:14:20.663Z,496.69
2022-09-12T00:14:31.653Z,496.71
2022-09-12T00:14:43.572Z,496.71
2022-09-12T00:14:54.587Z,496.72
2022-09-12T00:15:05.606Z,496.71
2022-09-12T00:15:16.625Z,496.73
2022-09-12T00:15:27.632Z,496.72
2022-09-12T00:15:38.659Z,496.71
2022-09-12T00:15:50.564Z,496.70
2022-09-12T00:16:01.581Z,496.68
2022-09-12T00:16:12.626Z,496.67
2022-09-12T00:16:23.664Z,496.66
2022-09-12T00:16:34.704Z,496.64
2022-09-12T00:16:46.647Z,496.62
2022-09-12T00:16:57.600Z,496.61
2022-09-12T00:17:08.637Z,496.58
2022-09-12T00:17:19.639Z,496.58
2022-09-12T00:17:31.639Z,496.57
2022-09-12T00:17:43.654Z,496.56
2022-09-12T00:17:55.573Z,496.54
2022-09-12T00:18:06.585Z,496.57
2022-09-12T00:18:17.594Z,496.55
2022-09-12T00:18:28.612Z,496.56
2022-09-12T00:18:39.621Z,496.56
2022-09-12T00:18:50.631Z,496.58
2022-09-12T00:19:01.640Z,496.62
2022-09-12T00:19:12.557Z,496.61
2022-09-12T00:19:23.582Z,496.62
2022-09-12T00:19:34.603Z,496.64
2022-09-12T00:19:45.630Z,496.69
2022-09-12T00:19:56.629Z,496.69
2022-09-12T00:20:07.633Z,496.71
2022-09-12T00:20:19.561Z,496.73
2022-09-12T00:20:30.571Z,496.76
2022-09-12T00:20:41.577Z,496.78
2022-09-12T00:20:52.598Z,496.79
2022-09-12T00:21:03.618Z,496.83
2022-09-12T00:21:15.626Z,496.87
2022-09-12T00:21:26.641Z,496.88
2022-09-12T00:21:37.652Z,496.88
2022-09-12T00:21:48.563Z,496.90
2022-09-12T00:21:59.576Z,496.89
2022-09-12T00:22:10.596Z,496.91
2022-09-12T00:22:21.616Z,496.90
2022-09-12T00:22:32.628Z,496.94
2022-09-12T00:22:43.666Z,496.93
2022-09-12T00:22:55.585Z,496.93
2022-09-12T00:23:06.594Z,496.93
2022-09-12T00:23:17.597Z,496.93
2022-09-12T00:23:28.612Z,496.94
2022-09-12T00:23:39.619Z,496.92
2022-09-12T00:23:50.628Z,496.92
2022-09-12T00:24:01.631Z,496.93
2022-09-12T00:24:12.641Z,496.94
2022-09-12T00:24:23.645Z,496.91
2022-09-12T00:24:35.568Z,496.90
2022-09-12T00:24:46.598Z,496.92
2022-09-12T00:24:57.602Z,496.92
2022-09-12T00:25:08.605Z,496.91
2022-09-12T00:25:19.613Z,496.91
2022-09-12T00:25:30.626Z,496.90
2022-09-12T00:25:41.640Z,496.89
2022-09-12T00:25:52.551Z,496.90
2022-09-12T00:26:03.572Z,496.91
2022-09-12T00:26:14.589Z,496.89
2022-09-12T00:26:25.599Z,496.89
2022-09-12T00:26:36.612Z,496.88
2022-09-12T00:26:47.617Z,496.88
2022-09-12T00:26:58.642Z,496.89
2022-09-12T00:27:09.554Z,496.91
2022-09-12T00:27:20.572Z,496.91
2022-09-12T00:27:31.591Z,496.92
2022-09-12T00:27:42.606Z,496.91
2022-09-12T00:27:53.627Z,496.89
2022-09-12T00:28:04.649Z,496.91
2022-09-12T00:28:16.669Z,496.94
2022-09-12T00:28:28.586Z,496.94
2022-09-12T00:28:39.598Z,496.96
2022-09-12T00:28:50.617Z,496.95
2022-09-12T00:29:01.618Z,496.98
2022-09-12T00:29:12.624Z,496.98
2022-09-12T00:29:23.661Z,497.00
2022-09-12T00:29:35.562Z,497.01
2022-09-12T00:29:46.567Z,497.00
2022-09-12T00:29:57.576Z,497.04
2022-09-12T00:30:08.588Z,497.05
2022-09-12T00:30:19.596Z,497.06
2022-09-12T00:30:30.603Z,497.06
2022-09-12T00:30:41.619Z,497.09
2022-09-12T00:30:52.629Z,497.10
2022-09-12T00:31:03.552Z,497.10
2022-09-12T00:31:14.756Z,497.15
2022-09-12T00:31:25.624Z,497.16
2022-09-12T00:31:36.699Z,497.19
2022-09-12T00:31:48.647Z,497.19
2022-09-12T00:31:59.649Z,497.20
2022-09-12T00:32:10.607Z,497.24
2022-09-12T00:32:21.619Z,497.25
2022-09-12T00:32:32.631Z,497.26
2022-09-12T00:32:43.662Z,497.26
2022-09-12T00:32:55.581Z,497.26
2022-09-12T00:33:06.585Z,497.27
2022-09-12T00:33:17.608Z,497.28
2022-09-12T00:33:28.610Z,497.28
2022-09-12T00:33:39.638Z,497.29
2022-09-12T00:33:50.647Z,497.32
2022-09-12T00:34:02.562Z,497.32
2022-09-12T00:34:13.578Z,497.35
2022-09-12T00:34:24.589Z,497.34
2022-09-12T00:34:35.608Z,497.34
2022-09-12T00:34:46.616Z,497.36
2022-09-12T00:34:57.624Z,497.38
2022-09-12T00:35:08.657Z,497.40
2022-09-12T00:35:19.661Z,497.38
2022-09-12T00:35:31.588Z,497.41
2022-09-12T00:35:42.602Z,497.39
2022-09-12T00:35:53.610Z,497.42
2022-09-12T00:36:04.625Z,497.43
2022-09-12T00:36:15.647Z,497.42
2022-09-12T00:36:27.651Z,497.43
2022-09-12T00:36:38.576Z,497.44
2022-09-12T00:36:49.589Z,497.45
2022-09-12T00:37:00.598Z,497.46
2022-09-12T00:37:11.613Z,497.46
2022-09-12T00:37:22.630Z,497.45
2022-09-12T00:37:33.641Z,497.43
2022-09-12T00:37:44.689Z,497.47
2022-09-12T00:37:56.608Z,497.46
2022-09-12T00:38:07.638Z,497.48
2022-09-12T00:38:19.580Z,497.49
2022-09-12T00:38:30.586Z,497.47
2022-09-12T00:38:41.690Z,497.49
2022-09-12T00:38:52.642Z,497.49
2022-09-12T00:39:03.649Z,497.49
2022-09-12T00:39:14.658Z,497.51
2022-09-12T00:39:25.575Z,497.51
2022-09-12T00:39:36.702Z,497.49
2022-09-12T00:39:47.632Z,497.49
2022-09-12T00:39:58.675Z,497.52
2022-09-12T00:40:09.714Z,497.52
2022-09-12T00:40:21.578Z,497.52
2022-09-12T00:40:32.588Z,497.53
2022-09-12T00:40:43.600Z,497.57
2022-09-12T00:40:54.604Z,497.55
2022-09-12T00:41:05.619Z,497.58
2022-09-12T00:41:16.626Z,497.59
2022-09-12T00:41:27.640Z,497.61
2022-09-12T00:41:38.669Z,497.62
2022-09-12T00:41:50.669Z,497.64
2022-09-12T00:42:02.573Z,497.64
2022-09-12T00:42:13.578Z,497.65
2022-09-12T00:42:24.596Z,497.65
2022-09-12T00:42:35.608Z,497.66
2022-09-12T00:42:46.631Z,497.69
2022-09-12T00:42:57.644Z,497.69
2022-09-12T00:43:08.553Z,497.73
2022-09-12T00:43:19.572Z,497.75
2022-09-12T00:43:30.588Z,497.74
2022-09-12T00:43:41.595Z,497.78
2022-09-12T00:43:52.607Z,497.81
2022-09-12T00:44:03.626Z,497.81
2022-09-12T00:44:14.628Z,497.85
2022-09-12T00:44:25.663Z,497.89
2022-09-12T00:44:36.652Z,497.91
2022-09-12T00:44:47.566Z,497.91
2022-09-12T00:44:58.595Z,497.96
2022-09-12T00:45:09.607Z,497.98
2022-09-12T00:45:20.621Z,498.00
2022-09-12T00:45:31.652Z,498.02
2022-09-12T00:45:42.683Z,498.05
2022-09-12T00:45:53.601Z,498.08
2022-09-12T00:46:04.606Z,498.12
2022-09-12T00:46:15.581Z,498.13
2022-09-12T00:46:26.588Z,498.15
2022-09-12T00:46:37.609Z,498.18
2022-09-12T00:46:49.614Z,498.21
2022-09-12T00:47:00.636Z,498.24
2022-09-12T00:47:11.649Z,498.27
2022-09-12T00:47:22.571Z,498.31
2022-09-12T00:47:33.610Z,498.34
2022-09-12T00:47:44.627Z,498.35
2022-09-12T00:47:55.642Z,498.36
2022-09-12T00:48:06.655Z,498.37
2022-09-12T00:48:18.586Z,498.42
2022-09-12T00:48:29.593Z,498.42
2022-09-12T00:48:40.609Z,498.45
2022-09-12T00:48:52.616Z,498.45
2022-09-12T00:49:03.635Z,498.46
2022-09-12T00:49:14.640Z,498.50
2022-09-12T00:49:25.548Z,498.50
2022-09-12T00:49:36.572Z,498.50
2022-09-12T00:49:47.589Z,498.53
2022-09-12T00:49:58.602Z,498.54
2022-09-12T00:50:09.612Z,498.57
2022-09-12T00:50:20.629Z,498.56
2022-09-12T00:50:31.646Z,498.58
2022-09-12T00:50:42.548Z,498.59
2022-09-12T00:50:53.554Z,498.58
2022-09-12T00:51:04.561Z,498.61
2022-09-12T00:51:15.581Z,498.61
2022-09-12T00:51:26.597Z,498.60
2022-09-12T00:51:37.612Z,498.64
2022-09-12T00:51:48.631Z,498.64
2022-09-12T00:51:59.653Z,498.66
2022-09-12T00:52:11.661Z,498.67
2022-09-12T00:52:23.585Z,498.68
2022-09-12T00:52:34.608Z,498.69
2022-09-12T00:52:45.615Z,498.72
2022-09-12T00:52:56.626Z,498.73
2022-09-12T00:53:07.637Z,498.74
2022-09-12T00:53:18.655Z,498.75
2022-09-12T00:53:30.576Z,498.76
2022-09-12T00:53:41.593Z,498.76
2022-09-12T00:53:52.597Z,498.78
2022-09-12T00:54:03.610Z,498.78
2022-09-12T00:54:14.636Z,498.81
2022-09-12T00:54:25.639Z,498.80
2022-09-12T00:54:36.554Z,498.80
2022-09-12T00:54:47.677Z,498.80
2022-09-12T00:54:59.598Z,498.80
2022-09-12T00:55:10.606Z,498.79
2022-09-12T00:55:21.620Z,498.80
2022-09-12T00:55:32.631Z,498.82
2022-09-12T00:55:43.655Z,498.81
2022-09-12T00:55:55.560Z,498.81
2022-09-12T00:56:06.562Z,498.82
2022-09-12T00:56:17.570Z,498.82
2022-09-12T00:56:28.581Z,498.80
2022-09-12T00:56:39.585Z,498.82
2022-09-12T00:56:50.586Z,498.84
2022-09-12T00:57:01.601Z,498.84
2022-09-12T00:57:12.611Z,498.85
2022-09-12T00:57:23.619Z,498.85
2022-09-12T00:57:34.644Z,498.84
2022-09-12T00:57:46.564Z,498.84
2022-09-12T00:57:57.579Z,498.85
2022-09-12T00:58:08.582Z,498.87
2022-09-12T00:58:19.592Z,498.87
2022-09-12T00:58:30.600Z,498.89
2022-09-12T00:58:41.657Z,498.88
2022-09-12T00:58:52.622Z,498.89
2022-09-12T00:59:04.625Z,498.88
2022-09-12T00:59:15.639Z,498.87
2022-09-12T00:59:27.644Z,498.87
2022-09-12T00:59:38.726Z,498.88
2022-09-12T00:59:50.574Z,498.88
2022-09-12T01:00:01.580Z,498.89
2022-09-12T01:00:12.593Z,498.87
2022-09-12T01:00:23.598Z,498.89
2022-09-12T01:00:34.609Z,498.86
2022-09-12T01:00:46.688Z,498.89
2022-09-12T01:00:57.750Z,498.88
2022-09-12T01:01:08.801Z,498.88
2022-09-12T01:01:20.720Z,498.92
2022-09-12T01:01:32.778Z,498.89
2022-09-12T01:01:43.817Z,498.92
2022-09-12T01:01:54.756Z,498.89
2022-09-12T01:02:06.754Z,498.92
2022-09-12T01:02:17.674Z,498.94
2022-09-12T01:02:28.664Z,498.92
2022-09-12T01:02:39.663Z,498.93
2022-09-12T01:02:50.567Z,498.94
2022-09-12T01:03:01.578Z,498.96
2022-09-12T01:03:12.586Z,498.97
2022-09-12T01:03:23.598Z,498.98
2022-09-12T01:03:34.615Z,498.97
2022-09-12T01:03:45.619Z,499.01
2022-09-12T01:03:56.623Z,499.04
2022-09-12T01:04:08.628Z,499.05
2022-09-12T01:04:19.548Z,499.05
2022-09-12T01:04:30.568Z,499.07
2022-09-12T01:04:41.585Z,499.07
2022-09-12T01:04:53.593Z,499.07
2022-09-12T01:05:04.612Z,499.11
2022-09-12T01:05:16.617Z,499.12
2022-09-12T01:05:27.628Z,499.14
2022-09-12T01:05:39.633Z,499.14
2022-09-12T01:05:50.634Z,499.18
2022-09-12T01:06:01.550Z,499.17
2022-09-12T01:06:12.654Z,499.16
2022-09-12T01:06:24.569Z,499.19
2022-09-12T01:06:35.570Z,499.20
2022-09-12T01:06:46.591Z,499.20
2022-09-12T01:06:57.600Z,499.23
2022-09-12T01:07:08.616Z,499.24
2022-09-12T01:07:19.630Z,499.22
2022-09-12T01:07:31.655Z,499.23
2022-09-12T01:07:43.573Z,499.25
2022-09-12T01:07:54.583Z,499.26
2022-09-12T01:08:05.592Z,499.27
2022-09-12T01:08:16.600Z,499.27
2022-09-12T01:08:27.610Z,499.24
2022-09-12T01:08:38.619Z,499.26
2022-09-12T01:08:49.626Z,499.27
2022-09-12T01:09:00.637Z,499.30
2022-09-12T01:09:11.643Z,499.30
2022-09-12T01:09:22.650Z,499.29
2022-09-12T01:09:34.566Z,499.30
2022-09-12T01:09:45.573Z,499.30
2022-09-12T01:09:56.580Z,499.34
2022-09-12T01:10:08.583Z,499.34
2022-09-12T01:10:19.599Z,499.37
2022-09-12T01:10:30.608Z,499.37
2022-09-12T01:10:41.616Z,499.39
2022-09-12T01:10:52.625Z,499.42
2022-09-12T01:11:03.628Z,499.39
2022-09-12T01:11:14.642Z,499.42
2022-09-12T01:11:26.644Z,499.45
2022-09-12T01:11:38.551Z,499.48
2022-09-12T01:11:49.562Z,499.45
2022-09-12T01:12:00.574Z,499.48
2022-09-12T01:12:11.586Z,499.50
2022-09-12T01:12:22.614Z,499.51
2022-09-12T01:12:33.659Z,499.51
2022-09-12T01:12:45.572Z,499.53
2022-09-12T01:12:56.581Z,499.54
2022-09-12T01:13:07.587Z,499.58
2022-09-12T01:13:18.611Z,499.60
2022-09-12T01:13:29.632Z,499.61
2022-09-12T01:13:40.638Z,499.60
2022-09-12T01:13:51.650Z,499.61
2022-09-12T01:14:03.577Z,499.63
2022-09-12T01:14:14.596Z,499.63
2022-09-12T01:14:25.614Z,499.65
2022-09-12T01:14:37.619Z,499.67
2022-09-12T01:14:48.648Z,499.66
2022-09-12T01:14:59.632Z,499.68
2022-09-12T01:15:10.636Z,499.65
2022-09-12T01:15:22.645Z,499.67
2022-09-12T01:15:34.565Z,499.69
2022-09-12T01:15:45.570Z,499.67
2022-09-12T01:15:56.577Z,499.69
2022-09-12T01:16:08.590Z,499.67
2022-09-12T01:16:19.631Z,499.68
2022-09-12T01:16:30.624Z,499.70
2022-09-12T01:16:41.641Z,499.68
2022-09-12T01:16:52.616Z,499.67
2022-09-12T01:17:03.624Z,499.69
2022-09-12T01:17:15.640Z,499.69
2022-09-12T01:17:26.550Z,499.69
2022-09-12T01:17:37.584Z,499.68
2022-09-12T01:17:48.604Z,499.68
2022-09-12T01:17:59.625Z,499.67
2022-09-12T01:18:10.642Z,499.69
2022-09-12T01:18:22.567Z,499.72
2022-09-12T01:18:33.578Z,499.72
2022-09-12T01:18:44.645Z,499.73
2022-09-12T01:18:55.635Z,499.75
2022-09-12T01:19:06.647Z,499.75
2022-09-12T01:19:18.557Z,499.79
2022-09-12T01:19:29.568Z,499.80
2022-09-12T01:19:40.590Z,499.81
2022-09-12T01:19:52.593Z,499.80
2022-09-12T01:20:03.599Z,499.83
2022-09-12T01:20:14.622Z,499.85
2022-09-12T01:20:25.629Z,499.87
2022-09-12T01:20:36.632Z,499.88
2022-09-12T01:20:48.637Z,499.91
2022-09-12T01:20:59.551Z,499.92
2022-09-12T01:21:10.560Z,499.95
2022-09-12T01:21:21.561Z,499.95
2022-09-12T01:21:32.578Z,499.98
2022-09-12T01:21:43.592Z,499.98
2022-09-12T01:21:54.595Z,499.99
2022-09-12T01:22:06.602Z,499.97
2022-09-12T01:22:17.622Z,499.99
2022-09-12T01:22:28.622Z,500.00
2022-09-12T01:22:40.644Z,499.98
2022-09-12T01:22:52.568Z,499.99
2022-09-12T01:23:03.593Z,500.00
2022-09-12T01:23:14.606Z,499.98
2022-09-12T01:23:26.604Z,499.97
2022-09-12T01:23:37.606Z,499.98
2022-09-12T01:23:48.611Z,499.98
2022-09-12T01:23:59.618Z,499.96
2022-09-12T01:24:10.634Z,499.97
2022-09-12T01:24:21.634Z,499.94
2022-09-12T01:24:33.640Z,499.97
2022-09-12T01:24:45.640Z,499.95
2022-09-12T01:24:56.549Z,499.97
2022-09-12T01:25:07.556Z,499.94
2022-09-12T01:25:19.559Z,499.95
2022-09-12T01:25:31.563Z,499.92
2022-09-12T01:25:42.567Z,499.95
2022-09-12T01:25:54.573Z,499.95
2022-09-12T01:26:05.594Z,499.93
2022-09-12T01:26:16.618Z,499.96
2022-09-12T01:26:27.626Z,499.97
2022-09-12T01:26:39.630Z,499.96
2022-09-12T01:26:50.636Z,499.98
2022-09-12T01:27:01.632Z,499.99
2022-09-12T01:27:12.636Z,500.00
2022-09-12T01:27:23.641Z,500.00
2022-09-12T01:27:35.556Z,500.01
2022-09-12T01:27:46.574Z,500.03
2022-09-12T01:27:57.576Z,500.02
2022-09-12T01:28:08.628Z,500.02
2022-09-12T01:28:19.631Z,500.04
2022-09-12T01:28:30.548Z,500.04
2022-09-12T01:28:41.693Z,500.04
2022-09-12T01:28:53.567Z,500.06
2022-09-12T01:29:04.581Z,500.05
2022-09-12T01:29:15.581Z,500.06
2022-09-12T01:29:26.601Z,500.08
2022-09-12T01:29:37.693Z,500.09
2022-09-12T01:29:48.622Z,500.09
2022-09-12T01:29:59.656Z,500.10
2022-09-12T01:30:10.647Z,500.10
2022-09-12T01:30:22.653Z,500.10
2022-09-12T01:30:34.564Z,500.13
2022-09-12T01:30:45.582Z,500.13
2022-09-12T01:30:56.589Z,500.14
2022-09-12T01:31:08.596Z,500.16
2022-09-12T01:31:19.608Z,500.16
2022-09-12T01:31:30.612Z,500.17
2022-09-12T01:31:41.629Z,500.19
2022-09-12T01:31:52.697Z,500.21
2022-09-12T01:32:04.613Z,500.22
2022-09-12T01:32:15.627Z,500.21
2022-09-12T01:32:26.625Z,500.19
2022-09-12T01:32:37.624Z,500.20
2022-09-12T01:32:48.642Z,500.21
2022-09-12T01:33:00.558Z,500.21
2022-09-12T01:33:11.570Z,500.24
2022-09-12T01:33:22.571Z,500.24
2022-09-12T01:33:33.588Z,500.23
2022-09-12T01:33:44.596Z,500.24
2022-09-12T01:33:55.604Z,500.24
2022-09-12T01:34:06.627Z,500.25
2022-09-12T01:34:17.646Z,500.25
2022-09-12T01:34:29.552Z,500.26
2022-09-12T01:34:40.551Z,500.25
2022-09-12T01:34:51.568Z,500.25
2022-09-12T01:35:02.573Z,500.23
2022-09-12T01:35:13.581Z,500.25
2022-09-12T01:35:24.591Z,500.26
2022-09-12T01:35:35.595Z,500.25
2022-09-12T01:35:46.666Z,500.26
2022-09-12T01:35:57.612Z,500.25
2022-09-12T01:36:08.613Z,500.25
2022-09-12T01:36:19.624Z,500.27
2022-09-12T01:36:30.630Z,500.26
2022-09-12T01:36:41.552Z,500.29
2022-09-12T01:36:52.561Z,500.28
2022-09-12T01:37:03.581Z,500.31
2022-09-12T01:37:14.593Z,500.32
2022-09-12T01:37:25.599Z,500.34
2022-09-12T01:37:36.621Z,500.33
2022-09-12T01:37:47.660Z,500.33
2022-09-12T01:37:59.567Z,500.33
2022-09-12T01:38:10.588Z,500.34
2022-09-12T01:38:21.616Z,500.33
2022-09-12T01:38:32.625Z,500.33
2022-09-12T01:38:43.680Z,500.35
2022-09-12T01:38:54.645Z,500.35
2022-09-12T01:39:05.662Z,500.35
2022-09-12T01:39:17.571Z,500.34
2022-09-12T01:39:28.580Z,500.34
2022-09-12T01:39:39.659Z,500.34
2022-09-12T01:39:51.661Z,500.35
2022-09-12T01:40:02.677Z,500.34
2022-09-12T01:40:13.724Z,500.34
2022-09-12T01:40:25.596Z,500.34
2022-09-12T01:40:36.603Z,500.35
2022-09-12T01:40:48.604Z,500.35
2022-09-12T01:40:59.623Z,500.35
2022-09-12T01:41:10.639Z,500.35
2022-09-12T01:41:21.642Z,500.38
2022-09-12T01:41:32.646Z,500.39
2022-09-12T01:41:43.561Z,500.42
2022-09-12T01:41:54.595Z,500.46
2022-09-12T01:42:05.582Z,500.47
2022-09-12T01:42:16.581Z,500.51
2022-09-12T01:42:27.599Z,500.54
2022-09-12T01:42:38.601Z,500.59
2022-09-12T01:42:49.633Z,500.61
2022-09-12T01:43:00.642Z,500.67
2022-09-12T01:43:11.652Z,500.70
2022-09-12T01:43:23.567Z,500.77
2022-09-12T01:43:35.573Z,500.81
2022-09-12T01:43:46.575Z,500.85
2022-09-12T01:43:57.583Z,500.90
2022-09-12T01:44:08.596Z,500.94
2022-09-12T01:44:19.606Z,501.02
2022-09-12T01:44:30.615Z,501.07
2022-09-12T01:44:41.629Z,501.13
2022-09-12T01:44:52.628Z,501.12
2022-09-12T01:45:03.652Z,501.18
2022-09-12T01:45:14.641Z,501.23
2022-09-12T01:45:25.749Z,501.28
2022-09-12T01:45:37.687Z,501.30
2022-09-12T01:45:49.648Z,501.31
2022-09-12T01:46:00.699Z,501.33
2022-09-12T01:46:12.559Z,501.37
2022-09-12T01:46:24.572Z,501.36
2022-09-12T01:46:35.586Z,501.40
2022-09-12T01:46:46.599Z,501.36
2022-09-12T01:46:57.610Z,501.36
2022-09-12T01:47:08.624Z,501.37
2022-09-12T01:47:19.629Z,501.35
2022-09-12T01:47:30.643Z,501.38
2022-09-12T01:47:42.651Z,501.37
2022-09-12T01:47:54.585Z,501.35
2022-09-12T01:48:05.595Z,501.34
2022-09-12T01:48:16.594Z,501.32
2022-09-12T01:48:27.605Z,501.32
2022-09-12T01:48:38.624Z,501.32
2022-09-12T01:48:49.631Z,501.29
2022-09-12T01:49:00.643Z,501.30
2022-09-12T01:49:12.565Z,501.30
2022-09-12T01:49:23.584Z,501.29
2022-09-12T01:49:34.601Z,501.28
2022-09-12T01:49:45.630Z,501.32
2022-09-12T01:49:57.657Z,501.33
2022-09-12T01:50:09.587Z,501.35
2022-09-12T01:50:20.593Z,501.36
2022-09-12T01:50:31.613Z,501.38
2022-09-12T01:50:42.620Z,501.41
2022-09-12T01:50:53.680Z,501.41
2022-09-12T01:51:05.600Z,501.44
2022-09-12T01:51:16.607Z,501.50
2022-09-12T01:51:27.627Z,501.52
2022-09-12T01:51:38.624Z,501.54
2022-09-12T01:51:49.638Z,501.57
2022-09-12T01:52:00.647Z,501.59
2022-09-12T01:52:12.658Z,501.64
2022-09-12T01:52:24.576Z,501.66
2022-09-12T01:52:35.589Z,501.68
2022-09-12T01:52:46.592Z,501.69
2022-09-12T01:52:57.621Z,501.74
2022-09-12T01:53:08.634Z,501.76
2022-09-12T01:53:19.644Z,501.77
2022-09-12T01:53:31.658Z,501.79
2022-09-12T01:53:42.574Z,501.81
2022-09-12T01:53:53.597Z,501.82
2022-09-12T01:54:04.607Z,501.83
2022-09-12T01:54:15.619Z,501.87
2022-09-12T01:54:26.632Z,501.88
2022-09-12T01:54:37.648Z,501.89
2022-09-12T01:54:49.663Z,501.91
2022-09-12T01:55:01.584Z,501.91
2022-09-12T01:55:12.597Z,501.92
2022-09-12T01:55:23.604Z,501.94
2022-09-12T01:55:34.613Z,501.94
2022-09-12T01:55:45.630Z,501.96
2022-09-12T01:55:56.641Z,501.95
2022-09-12T01:56:07.647Z,501.95
2022-09-12T01:56:19.560Z,501.94
2022-09-12T01:56:30.569Z,501.95
2022-09-12T01:56:41.585Z,501.93
2022-09-12T01:56:52.590Z,501.94
2022-09-12T01:57:04.591Z,501.92
2022-09-12T01:57:15.598Z,501.93
2022-09-12T01:57:26.613Z,501.91
2022-09-12T01:57:37.632Z,501.89
2022-09-12T01:57:48.642Z,501.91
2022-09-12T01:57:59.566Z,501.88
2022-09-12T01:58:10.589Z,501.88
2022-09-12T01:58:21.596Z,501.88
2022-09-12T01:58:32.623Z,501.86
2022-09-12T01:58:43.708Z,501.88
2022-09-12T01:58:55.593Z,501.87
2022-09-12T01:59:06.606Z,501.86
2022-09-12T01:59:17.616Z,501.85
2022-09-12T01:59:28.633Z,501.84
2022-09-12T01:59:39.650Z,501.87
2022-09-12T01:59:50.565Z,501.90
2022-09-12T02:00:01.579Z,501.88
2022-09-12T02:00:12.610Z,501.89
2022-09-12T02:00:23.607Z,501.88
2022-09-12T02:00:34.626Z,501.91
2022-09-12T02:00:46.689Z,501.89
2022-09-12T02:00:57.701Z,501.92
2022-09-12T02:01:08.721Z,501.94
2022-09-12T02:01:20.654Z,501.95
2022-09-12T02:01:31.668Z,501.96
2022-09-12T02:01:42.632Z,501.97
2022-09-12T02:01:53.658Z,501.98
2022-09-12T02:02:05.617Z,501.99
2022-09-12T02:02:16.646Z,502.02
2022-09-12T02:02:27.624Z,502.04
2022-09-12T02:02:38.605Z,502.06
2022-09-12T02:02:49.631Z,502.06
2022-09-12T02:03:00.658Z,502.10
2022-09-12T02:03:12.562Z,502.12
2022-09-12T02:03:23.572Z,502.13
2022-09-12T02:03:34.593Z,502.12
2022-09-12T02:03:45.616Z,502.14
2022-09-12T02:03:56.624Z,502.17
2022-09-12T02:04:07.632Z,502.15
2022-09-12T02:04:18.647Z,502.16
2022-09-12T02:04:33.599Z,502.18
2022-09-12T02:04:40.654Z,502.17
2022-09-12T02:04:52.599Z,502.17
2022-09-12T02:05:03.596Z,502.20
2022-09-12T02:05:14.610Z,502.18
2022-09-12T02:05:25.624Z,502.21
2022-09-12T02:05:36.644Z,502.21
2022-09-12T02:05:47.658Z,502.21
2022-09-12T02:05:59.584Z,502.22
2022-09-12T02:06:10.610Z,502.21
2022-09-12T02:06:21.619Z,502.23
2022-09-12T02:06:32.621Z,502.20
2022-09-12T02:06:43.630Z,502.25
2022-09-12T02:06:54.644Z,502.25
2022-09-12T02:07:05.656Z,502.29
2022-09-12T02:07:16.662Z,502.31
2022-09-12T02:07:27.666Z,502.30
2022-09-12T02:07:39.584Z,502.33
2022-09-12T02:07:50.587Z,502.34
2022-09-12T02:08:01.631Z,502.35
2022-09-12T02:08:12.637Z,502.34
2022-09-12T02:08:23.648Z,502.36
2022-09-12T02:08:34.565Z,502.40
2022-09-12T02:08:45.714Z,502.42
2022-09-12T02:08:56.610Z,502.45
2022-09-12T02:09:07.620Z,502.46
2022-09-12T02:09:18.635Z,502.47
2022-09-12T02:09:29.651Z,502.51
2022-09-12T02:09:40.562Z,502.52
2022-09-12T02:09:51.564Z,502.55
2022-09-12T02:10:03.573Z,502.55
2022-09-12T02:10:14.586Z,502.57
2022-09-12T02:10:29.145Z,502.60
2022-09-12T02:10:38.582Z,502.62
2022-09-12T02:10:48.592Z,502.64
2022-09-12T02:10:59.594Z,502.66
2022-09-12T02:11:10.604Z,502.69
2022-09-12T02:11:21.620Z,502.71
2022-09-12T02:11:32.632Z,502.68
2022-09-12T02:11:43.652Z,502.70
2022-09-12T02:11:54.656Z,502.72
2022-09-12T02:12:06.579Z,502.72
2022-09-12T02:12:17.583Z,502.74
2022-09-12T02:12:28.590Z,502.73
2022-09-12T02:12:39.597Z,502.73
2022-09-12T02:12:50.609Z,502.75
2022-09-12T02:13:01.633Z,502.74
2022-09-12T02:13:12.640Z,502.77
2022-09-12T02:13:23.644Z,502.75
2022-09-12T02:13:34.654Z,502.74
2022-09-12T02:13:45.562Z,502.75
2022-09-12T02:13:56.577Z,502.73
2022-09-12T02:14:08.582Z,502.73
2022-09-12T02:14:19.598Z,502.73
2022-09-12T02:14:30.607Z,502.75
2022-09-12T02:14:41.616Z,502.77
2022-09-12T02:14:52.632Z,502.77
2022-09-12T02:15:03.640Z,502.80
2022-09-12T02:15:14.662Z,502.81
2022-09-12T02:15:25.662Z,502.82
2022-09-12T02:15:37.583Z,502.86
2022-09-12T02:15:48.591Z,502.88
2022-09-12T02:15:59.600Z,502.88
2022-09-12T02:16:10.750Z,502.90
2022-09-12T02:16:21.703Z,502.91
2022-09-12T02:16:33.596Z,502.91
2022-09-12T02:16:44.657Z,502.92
2022-09-12T02:16:55.612Z,502.96
2022-09-12T02:17:06.630Z,502.98
2022-09-12T02:17:17.641Z,503.01
2022-09-12T02:17:28.657Z,503.05
2022-09-12T02:17:39.667Z,503.06
2022-09-12T02:17:51.594Z,503.08
2022-09-12T02:18:02.622Z,503.10
2022-09-12T02:18:13.637Z,503.12
2022-09-12T02:18:24.642Z,503.16
2022-09-12T02:18:35.648Z,503.17
2022-09-12T02:18:47.724Z,503.22
2022-09-12T02:18:58.628Z,503.23
2022-09-12T02:19:09.638Z,503.23
2022-09-12T02:19:20.648Z,503.23
2022-09-12T02:19:31.660Z,503.27